sensor_id;sensor_type;location;lat;lon;timestamp;P1;durP1;ratioP1;P2;durP2;ratioP2
2201;SDS011;1107;48.654;9.250;2022-08-19T00:01:22;22.90;;;20.80;;
2201;SDS011;1107;48.654;9.250;2022-08-19T00:03:50;23.57;;;21.27;;
2201;SDS011;1107;48.654;9.250;2022-08-19T00:06:17;23.77;;;21.40;;
2201;SDS011;1107;48.654;9.250;2022-08-19T00:08:45;23.87;;;21.67;;
2201;SDS011;1107;48.654;9.250;2022-08-19T00:11:13;23.97;;;21.60;;
2201;SDS011;1107;48.654;9.250;2022-08-19T00:13:40;23.33;;;21.07;;
2201;SDS011;1107;48.654;9.250;2022-08-19T00:16:07;22.33;;;20.40;;
2201;SDS011;1107;48.654;9.250;2022-08-19T00:18:34;23.37;;;21.37;;
2201;SDS011;1107;48.654;9.250;2022-08-19T00:21:01;23.40;;;21.30;;
2201;SDS011;1107;48.654;9.250;2022-08-19T00:23:32;22.90;;;20.80;;
2201;SDS011;1107;48.654;9.250;2022-08-19T00:26:02;23.70;;;21.60;;
2201;SDS011;1107;48.654;9.250;2022-08-19T00:28:29;23.67;;;21.40;;
2201;SDS011;1107;48.654;9.250;2022-08-19T00:30:56;24.77;;;22.37;;
2201;SDS011;1107;48.654;9.250;2022-08-19T00:33:23;22.67;;;20.50;;
2201;SDS011;1107;48.654;9.250;2022-08-19T00:35:51;23.00;;;20.73;;
2201;SDS011;1107;48.654;9.250;2022-08-19T00:38:18;23.97;;;21.50;;
2201;SDS011;1107;48.654;9.250;2022-08-19T00:40:47;23.00;;;20.50;;
2201;SDS011;1107;48.654;9.250;2022-08-19T00:43:28;22.20;;;20.05;;
2201;SDS011;1107;48.654;9.250;2022-08-19T00:45:55;22.60;;;20.30;;
2201;SDS011;1107;48.654;9.250;2022-08-19T00:48:22;22.77;;;20.60;;
2201;SDS011;1107;48.654;9.250;2022-08-19T00:50:50;24.90;;;21.73;;
2201;SDS011;1107;48.654;9.250;2022-08-19T00:53:22;23.17;;;20.80;;
2201;SDS011;1107;48.654;9.250;2022-08-19T00:55:52;22.63;;;20.43;;
2201;SDS011;1107;48.654;9.250;2022-08-19T00:58:24;26.50;;;22.10;;
2201;SDS011;1107;48.654;9.250;2022-08-19T01:00:54;24.17;;;21.53;;
2201;SDS011;1107;48.654;9.250;2022-08-19T01:03:21;22.53;;;20.50;;
2201;SDS011;1107;48.654;9.250;2022-08-19T01:05:49;22.57;;;20.30;;
2201;SDS011;1107;48.654;9.250;2022-08-19T01:08:18;23.23;;;21.13;;
2201;SDS011;1107;48.654;9.250;2022-08-19T01:10:47;23.77;;;21.40;;
2201;SDS011;1107;48.654;9.250;2022-08-19T01:13:17;22.77;;;20.67;;
2201;SDS011;1107;48.654;9.250;2022-08-19T01:15:50;22.80;;;20.50;;
2201;SDS011;1107;48.654;9.250;2022-08-19T01:18:22;22.80;;;20.60;;
2201;SDS011;1107;48.654;9.250;2022-08-19T01:20:51;23.60;;;21.13;;
2201;SDS011;1107;48.654;9.250;2022-08-19T01:23:21;22.80;;;20.60;;
2201;SDS011;1107;48.654;9.250;2022-08-19T01:26:07;25.27;;;21.50;;
2201;SDS011;1107;48.654;9.250;2022-08-19T01:28:36;24.20;;;21.67;;
2201;SDS011;1107;48.654;9.250;2022-08-19T01:31:03;25.97;;;21.67;;
2201;SDS011;1107;48.654;9.250;2022-08-19T01:33:31;24.63;;;21.00;;
2201;SDS011;1107;48.654;9.250;2022-08-19T01:36:03;26.40;;;21.30;;
2201;SDS011;1107;48.654;9.250;2022-08-19T01:38:35;22.67;;;20.40;;
2201;SDS011;1107;48.654;9.250;2022-08-19T01:41:04;23.27;;;20.90;;
2201;SDS011;1107;48.654;9.250;2022-08-19T01:43:32;23.73;;;21.33;;
2201;SDS011;1107;48.654;9.250;2022-08-19T01:45:59;24.57;;;21.80;;
2201;SDS011;1107;48.654;9.250;2022-08-19T01:48:32;23.00;;;20.60;;
2201;SDS011;1107;48.654;9.250;2022-08-19T01:51:00;24.10;;;21.67;;
2201;SDS011;1107;48.654;9.250;2022-08-19T01:53:27;22.83;;;20.40;;
2201;SDS011;1107;48.654;9.250;2022-08-19T01:55:56;23.70;;;21.20;;
2201;SDS011;1107;48.654;9.250;2022-08-19T01:58:24;24.77;;;21.43;;
2201;SDS011;1107;48.654;9.250;2022-08-19T02:00:55;24.47;;;21.93;;
2201;SDS011;1107;48.654;9.250;2022-08-19T02:03:22;24.43;;;21.53;;
2201;SDS011;1107;48.654;9.250;2022-08-19T02:05:53;24.90;;;22.17;;
2201;SDS011;1107;48.654;9.250;2022-08-19T02:08:21;23.63;;;21.10;;
2201;SDS011;1107;48.654;9.250;2022-08-19T02:10:48;26.70;;;22.30;;
2201;SDS011;1107;48.654;9.250;2022-08-19T02:13:17;24.60;;;21.87;;
2201;SDS011;1107;48.654;9.250;2022-08-19T02:15:44;26.00;;;23.23;;
2201;SDS011;1107;48.654;9.250;2022-08-19T02:18:12;25.03;;;22.33;;
2201;SDS011;1107;48.654;9.250;2022-08-19T02:20:39;25.70;;;23.00;;
2201;SDS011;1107;48.654;9.250;2022-08-19T02:23:08;28.70;;;23.00;;
2201;SDS011;1107;48.654;9.250;2022-08-19T02:25:37;24.07;;;21.87;;
2201;SDS011;1107;48.654;9.250;2022-08-19T02:28:05;26.87;;;23.60;;
2201;SDS011;1107;48.654;9.250;2022-08-19T02:30:33;24.80;;;22.10;;
2201;SDS011;1107;48.654;9.250;2022-08-19T02:33:00;25.60;;;22.90;;
2201;SDS011;1107;48.654;9.250;2022-08-19T02:35:27;25.13;;;22.53;;
2201;SDS011;1107;48.654;9.250;2022-08-19T02:37:54;25.53;;;22.43;;
2201;SDS011;1107;48.654;9.250;2022-08-19T02:40:38;26.53;;;21.43;;
2201;SDS011;1107;48.654;9.250;2022-08-19T02:43:06;28.60;;;22.40;;
2201;SDS011;1107;48.654;9.250;2022-08-19T02:45:37;25.60;;;22.17;;
2201;SDS011;1107;48.654;9.250;2022-08-19T02:48:05;28.63;;;23.53;;
2201;SDS011;1107;48.654;9.250;2022-08-19T02:50:36;23.90;;;21.33;;
2201;SDS011;1107;48.654;9.250;2022-08-19T02:53:04;23.03;;;20.73;;
2201;SDS011;1107;48.654;9.250;2022-08-19T02:55:32;25.90;;;23.03;;
2201;SDS011;1107;48.654;9.250;2022-08-19T02:57:59;30.13;;;24.00;;
2201;SDS011;1107;48.654;9.250;2022-08-19T03:00:26;27.17;;;23.30;;
2201;SDS011;1107;48.654;9.250;2022-08-19T03:02:55;24.73;;;22.20;;
2201;SDS011;1107;48.654;9.250;2022-08-19T03:05:22;25.57;;;22.80;;
2201;SDS011;1107;48.654;9.250;2022-08-19T03:07:49;28.00;;;23.80;;
2201;SDS011;1107;48.654;9.250;2022-08-19T03:10:16;27.00;;;22.37;;
2201;SDS011;1107;48.654;9.250;2022-08-19T03:12:43;28.07;;;23.90;;
2201;SDS011;1107;48.654;9.250;2022-08-19T03:15:11;26.83;;;23.93;;
2201;SDS011;1107;48.654;9.250;2022-08-19T03:17:38;32.70;;;23.80;;
2201;SDS011;1107;48.654;9.250;2022-08-19T03:20:07;27.60;;;22.97;;
2201;SDS011;1107;48.654;9.250;2022-08-19T03:22:35;28.97;;;24.47;;
2201;SDS011;1107;48.654;9.250;2022-08-19T03:25:02;27.13;;;24.17;;
2201;SDS011;1107;48.654;9.250;2022-08-19T03:27:30;28.43;;;24.03;;
2201;SDS011;1107;48.654;9.250;2022-08-19T03:29:56;34.33;;;24.27;;
2201;SDS011;1107;48.654;9.250;2022-08-19T03:32:24;33.73;;;26.77;;
2201;SDS011;1107;48.654;9.250;2022-08-19T03:34:51;29.83;;;24.73;;
2201;SDS011;1107;48.654;9.250;2022-08-19T03:37:19;31.70;;;24.53;;
2201;SDS011;1107;48.654;9.250;2022-08-19T03:39:47;31.40;;;26.40;;
2201;SDS011;1107;48.654;9.250;2022-08-19T03:42:14;33.73;;;26.60;;
2201;SDS011;1107;48.654;9.250;2022-08-19T03:44:42;31.60;;;24.83;;
2201;SDS011;1107;48.654;9.250;2022-08-19T03:47:09;35.47;;;26.07;;
2201;SDS011;1107;48.654;9.250;2022-08-19T03:49:41;31.77;;;26.60;;
2201;SDS011;1107;48.654;9.250;2022-08-19T03:52:08;27.30;;;24.20;;
2201;SDS011;1107;48.654;9.250;2022-08-19T03:54:36;29.67;;;25.70;;
2201;SDS011;1107;48.654;9.250;2022-08-19T03:57:04;30.53;;;24.67;;
2201;SDS011;1107;48.654;9.250;2022-08-19T03:59:32;27.27;;;24.40;;
2201;SDS011;1107;48.654;9.250;2022-08-19T04:02:02;33.20;;;26.87;;
2201;SDS011;1107;48.654;9.250;2022-08-19T04:04:34;32.20;;;26.63;;
2201;SDS011;1107;48.654;9.250;2022-08-19T04:07:01;37.53;;;27.53;;
2201;SDS011;1107;48.654;9.250;2022-08-19T04:09:28;32.53;;;26.60;;
2201;SDS011;1107;48.654;9.250;2022-08-19T04:11:56;33.80;;;27.83;;
2201;SDS011;1107;48.654;9.250;2022-08-19T04:14:25;32.37;;;26.70;;
2201;SDS011;1107;48.654;9.250;2022-08-19T04:16:55;32.87;;;27.90;;
2201;SDS011;1107;48.654;9.250;2022-08-19T04:19:22;35.80;;;27.43;;
2201;SDS011;1107;48.654;9.250;2022-08-19T04:21:51;32.27;;;27.70;;
2201;SDS011;1107;48.654;9.250;2022-08-19T04:24:19;33.47;;;27.70;;
2201;SDS011;1107;48.654;9.250;2022-08-19T04:26:47;35.23;;;27.93;;
2201;SDS011;1107;48.654;9.250;2022-08-19T04:29:17;35.50;;;28.43;;
2201;SDS011;1107;48.654;9.250;2022-08-19T04:31:47;39.83;;;28.40;;
2201;SDS011;1107;48.654;9.250;2022-08-19T04:34:15;36.90;;;27.50;;
2201;SDS011;1107;48.654;9.250;2022-08-19T04:36:47;41.70;;;28.70;;
2201;SDS011;1107;48.654;9.250;2022-08-19T04:39:17;32.20;;;26.77;;
2201;SDS011;1107;48.654;9.250;2022-08-19T04:41:46;35.63;;;26.93;;
2201;SDS011;1107;48.654;9.250;2022-08-19T04:44:32;34.60;;;28.10;;
2201;SDS011;1107;48.654;9.250;2022-08-19T04:47:00;37.23;;;28.80;;
2201;SDS011;1107;48.654;9.250;2022-08-19T04:49:28;36.70;;;27.53;;
2201;SDS011;1107;48.654;9.250;2022-08-19T04:51:55;38.17;;;28.20;;
2201;SDS011;1107;48.654;9.250;2022-08-19T04:54:23;36.33;;;28.00;;
2201;SDS011;1107;48.654;9.250;2022-08-19T04:56:51;47.70;;;29.50;;
2201;SDS011;1107;48.654;9.250;2022-08-19T04:59:19;41.53;;;29.43;;
2201;SDS011;1107;48.654;9.250;2022-08-19T05:01:48;42.73;;;29.53;;
2201;SDS011;1107;48.654;9.250;2022-08-19T05:04:15;37.37;;;28.07;;
2201;SDS011;1107;48.654;9.250;2022-08-19T05:06:45;35.00;;;27.97;;
2201;SDS011;1107;48.654;9.250;2022-08-19T05:09:13;39.93;;;29.10;;
2201;SDS011;1107;48.654;9.250;2022-08-19T05:11:41;49.53;;;28.80;;
2201;SDS011;1107;48.654;9.250;2022-08-19T05:14:09;42.43;;;29.40;;
2201;SDS011;1107;48.654;9.250;2022-08-19T05:16:38;35.53;;;27.90;;
2201;SDS011;1107;48.654;9.250;2022-08-19T05:19:07;34.00;;;27.93;;
2201;SDS011;1107;48.654;9.250;2022-08-19T05:21:52;47.10;;;29.87;;
2201;SDS011;1107;48.654;9.250;2022-08-19T05:24:36;35.07;;;28.53;;
2201;SDS011;1107;48.654;9.250;2022-08-19T05:27:04;44.40;;;29.33;;
2201;SDS011;1107;48.654;9.250;2022-08-19T05:29:32;37.50;;;28.70;;
2201;SDS011;1107;48.654;9.250;2022-08-19T05:32:00;40.37;;;28.70;;
2201;SDS011;1107;48.654;9.250;2022-08-19T05:34:31;35.30;;;28.40;;
2201;SDS011;1107;48.654;9.250;2022-08-19T05:36:59;41.50;;;28.70;;
2201;SDS011;1107;48.654;9.250;2022-08-19T05:39:29;37.97;;;28.87;;
2201;SDS011;1107;48.654;9.250;2022-08-19T05:41:58;41.60;;;26.90;;
2201;SDS011;1107;48.654;9.250;2022-08-19T05:44:26;39.83;;;28.50;;
2201;SDS011;1107;48.654;9.250;2022-08-19T05:46:56;40.50;;;27.13;;
2201;SDS011;1107;48.654;9.250;2022-08-19T05:49:24;37.83;;;28.00;;
2201;SDS011;1107;48.654;9.250;2022-08-19T05:51:54;48.77;;;26.60;;
2201;SDS011;1107;48.654;9.250;2022-08-19T05:54:21;37.90;;;27.70;;
2201;SDS011;1107;48.654;9.250;2022-08-19T05:56:50;35.23;;;27.50;;
2201;SDS011;1107;48.654;9.250;2022-08-19T05:59:18;31.50;;;27.40;;
2201;SDS011;1107;48.654;9.250;2022-08-19T06:01:46;44.30;;;29.90;;
2201;SDS011;1107;48.654;9.250;2022-08-19T06:04:16;30.83;;;27.47;;
2201;SDS011;1107;48.654;9.250;2022-08-19T06:06:44;32.77;;;27.60;;
2201;SDS011;1107;48.654;9.250;2022-08-19T06:09:13;41.00;;;30.20;;
2201;SDS011;1107;48.654;9.250;2022-08-19T06:11:41;38.87;;;30.10;;
2201;SDS011;1107;48.654;9.250;2022-08-19T06:14:10;38.20;;;29.77;;
2201;SDS011;1107;48.654;9.250;2022-08-19T06:16:40;37.77;;;29.37;;
2201;SDS011;1107;48.654;9.250;2022-08-19T06:19:08;37.87;;;30.00;;
2201;SDS011;1107;48.654;9.250;2022-08-19T06:21:38;38.80;;;29.87;;
2201;SDS011;1107;48.654;9.250;2022-08-19T06:24:06;40.47;;;30.27;;
2201;SDS011;1107;48.654;9.250;2022-08-19T06:26:37;36.33;;;30.00;;
2201;SDS011;1107;48.654;9.250;2022-08-19T06:29:06;34.33;;;28.37;;
2201;SDS011;1107;48.654;9.250;2022-08-19T06:31:35;35.23;;;28.97;;
2201;SDS011;1107;48.654;9.250;2022-08-19T06:34:04;41.07;;;29.50;;
2201;SDS011;1107;48.654;9.250;2022-08-19T06:36:34;36.57;;;28.60;;
2201;SDS011;1107;48.654;9.250;2022-08-19T06:39:03;47.50;;;30.87;;
2201;SDS011;1107;48.654;9.250;2022-08-19T06:41:34;43.30;;;29.97;;
2201;SDS011;1107;48.654;9.250;2022-08-19T06:44:04;35.23;;;28.63;;
2201;SDS011;1107;48.654;9.250;2022-08-19T06:46:32;36.83;;;29.80;;
2201;SDS011;1107;48.654;9.250;2022-08-19T06:48:59;39.63;;;30.03;;
2201;SDS011;1107;48.654;9.250;2022-08-19T06:51:26;34.00;;;28.73;;
2201;SDS011;1107;48.654;9.250;2022-08-19T06:53:54;35.73;;;29.70;;
2201;SDS011;1107;48.654;9.250;2022-08-19T06:56:22;36.33;;;28.77;;
2201;SDS011;1107;48.654;9.250;2022-08-19T06:58:55;32.53;;;28.33;;
2201;SDS011;1107;48.654;9.250;2022-08-19T07:01:24;34.07;;;27.90;;
2201;SDS011;1107;48.654;9.250;2022-08-19T07:03:51;35.80;;;29.80;;
2201;SDS011;1107;48.654;9.250;2022-08-19T07:06:18;34.80;;;27.83;;
2201;SDS011;1107;48.654;9.250;2022-08-19T07:08:46;38.27;;;29.20;;
2201;SDS011;1107;48.654;9.250;2022-08-19T07:11:15;37.10;;;28.80;;
2201;SDS011;1107;48.654;9.250;2022-08-19T07:13:44;34.50;;;28.40;;
2201;SDS011;1107;48.654;9.250;2022-08-19T07:16:14;40.73;;;30.60;;
2201;SDS011;1107;48.654;9.250;2022-08-19T07:18:46;40.23;;;29.53;;
2201;SDS011;1107;48.654;9.250;2022-08-19T07:21:15;37.07;;;29.83;;
2201;SDS011;1107;48.654;9.250;2022-08-19T07:23:43;38.83;;;29.10;;
2201;SDS011;1107;48.654;9.250;2022-08-19T07:26:17;36.07;;;29.00;;
2201;SDS011;1107;48.654;9.250;2022-08-19T07:28:46;41.00;;;30.10;;
2201;SDS011;1107;48.654;9.250;2022-08-19T07:31:14;35.60;;;28.57;;
2201;SDS011;1107;48.654;9.250;2022-08-19T07:33:44;40.50;;;30.30;;
2201;SDS011;1107;48.654;9.250;2022-08-19T07:36:14;41.77;;;31.23;;
2201;SDS011;1107;48.654;9.250;2022-08-19T07:38:44;33.20;;;27.33;;
2201;SDS011;1107;48.654;9.250;2022-08-19T07:41:14;35.83;;;28.03;;
2201;SDS011;1107;48.654;9.250;2022-08-19T07:43:42;34.10;;;29.00;;
2201;SDS011;1107;48.654;9.250;2022-08-19T07:46:10;42.03;;;30.80;;
2201;SDS011;1107;48.654;9.250;2022-08-19T07:48:38;44.20;;;29.77;;
2201;SDS011;1107;48.654;9.250;2022-08-19T07:51:08;37.70;;;29.37;;
2201;SDS011;1107;48.654;9.250;2022-08-19T07:53:36;37.50;;;28.93;;
2201;SDS011;1107;48.654;9.250;2022-08-19T07:56:04;45.67;;;29.67;;
2201;SDS011;1107;48.654;9.250;2022-08-19T07:58:32;33.80;;;28.73;;
2201;SDS011;1107;48.654;9.250;2022-08-19T08:01:02;40.33;;;30.40;;
2201;SDS011;1107;48.654;9.250;2022-08-19T08:03:30;38.43;;;29.53;;
2201;SDS011;1107;48.654;9.250;2022-08-19T08:06:16;32.80;;;27.57;;
2201;SDS011;1107;48.654;9.250;2022-08-19T08:09:02;35.17;;;28.00;;
2201;SDS011;1107;48.654;9.250;2022-08-19T08:11:47;38.87;;;29.33;;
2201;SDS011;1107;48.654;9.250;2022-08-19T08:14:16;34.77;;;29.10;;
2201;SDS011;1107;48.654;9.250;2022-08-19T08:16:45;42.70;;;30.80;;
2201;SDS011;1107;48.654;9.250;2022-08-19T08:19:13;36.70;;;29.37;;
2201;SDS011;1107;48.654;9.250;2022-08-19T08:21:42;39.47;;;28.80;;
2201;SDS011;1107;48.654;9.250;2022-08-19T08:24:10;40.30;;;29.83;;
2201;SDS011;1107;48.654;9.250;2022-08-19T08:26:37;37.90;;;30.17;;
2201;SDS011;1107;48.654;9.250;2022-08-19T08:29:05;36.60;;;29.87;;
2201;SDS011;1107;48.654;9.250;2022-08-19T08:31:36;37.10;;;28.30;;
2201;SDS011;1107;48.654;9.250;2022-08-19T08:34:03;35.93;;;29.90;;
2201;SDS011;1107;48.654;9.250;2022-08-19T08:36:41;34.70;;;28.83;;
2201;SDS011;1107;48.654;9.250;2022-08-19T08:39:11;37.50;;;30.63;;
2201;SDS011;1107;48.654;9.250;2022-08-19T08:41:41;41.80;;;28.87;;
2201;SDS011;1107;48.654;9.250;2022-08-19T08:44:16;35.90;;;28.93;;
2201;SDS011;1107;48.654;9.250;2022-08-19T08:46:48;38.40;;;29.33;;
2201;SDS011;1107;48.654;9.250;2022-08-19T08:49:23;43.23;;;29.50;;
2201;SDS011;1107;48.654;9.250;2022-08-19T08:51:59;39.87;;;28.50;;
2201;SDS011;1107;48.654;9.250;2022-08-19T08:54:32;37.83;;;30.13;;
2201;SDS011;1107;48.654;9.250;2022-08-19T08:57:02;35.80;;;29.97;;
2201;SDS011;1107;48.654;9.250;2022-08-19T08:59:34;37.63;;;28.60;;
2201;SDS011;1107;48.654;9.250;2022-08-19T09:02:03;37.90;;;29.13;;
2201;SDS011;1107;48.654;9.250;2022-08-19T09:04:30;35.70;;;29.33;;
2201;SDS011;1107;48.654;9.250;2022-08-19T09:07:02;35.63;;;28.50;;
2201;SDS011;1107;48.654;9.250;2022-08-19T09:09:43;36.10;;;29.70;;
2201;SDS011;1107;48.654;9.250;2022-08-19T09:12:14;39.13;;;30.40;;
2201;SDS011;1107;48.654;9.250;2022-08-19T09:14:48;38.70;;;29.03;;
2201;SDS011;1107;48.654;9.250;2022-08-19T09:17:20;41.43;;;29.23;;
2201;SDS011;1107;48.654;9.250;2022-08-19T09:19:57;39.67;;;29.63;;
2201;SDS011;1107;48.654;9.250;2022-08-19T09:22:31;58.03;;;30.10;;
2201;SDS011;1107;48.654;9.250;2022-08-19T09:24:58;31.50;;;28.30;;
2201;SDS011;1107;48.654;9.250;2022-08-19T09:27:25;34.30;;;28.20;;
2201;SDS011;1107;48.654;9.250;2022-08-19T09:29:54;34.47;;;28.53;;
2201;SDS011;1107;48.654;9.250;2022-08-19T09:32:21;36.67;;;28.20;;
2201;SDS011;1107;48.654;9.250;2022-08-19T09:34:50;31.93;;;27.43;;
2201;SDS011;1107;48.654;9.250;2022-08-19T09:37:19;31.93;;;27.63;;
2201;SDS011;1107;48.654;9.250;2022-08-19T09:39:48;42.97;;;28.67;;
2201;SDS011;1107;48.654;9.250;2022-08-19T09:42:16;33.00;;;26.77;;
2201;SDS011;1107;48.654;9.250;2022-08-19T09:44:43;36.20;;;28.83;;
2201;SDS011;1107;48.654;9.250;2022-08-19T09:47:11;32.43;;;27.40;;
2201;SDS011;1107;48.654;9.250;2022-08-19T09:49:39;36.10;;;29.17;;
2201;SDS011;1107;48.654;9.250;2022-08-19T09:52:08;33.23;;;28.50;;
2201;SDS011;1107;48.654;9.250;2022-08-19T09:54:36;32.43;;;28.20;;
2201;SDS011;1107;48.654;9.250;2022-08-19T09:57:05;33.20;;;28.63;;
2201;SDS011;1107;48.654;9.250;2022-08-19T09:59:32;33.00;;;28.30;;
2201;SDS011;1107;48.654;9.250;2022-08-19T10:02:00;31.80;;;27.60;;
2201;SDS011;1107;48.654;9.250;2022-08-19T10:04:27;33.83;;;28.30;;
2201;SDS011;1107;48.654;9.250;2022-08-19T10:07:14;32.93;;;28.70;;
2201;SDS011;1107;48.654;9.250;2022-08-19T10:09:41;33.40;;;29.57;;
2201;SDS011;1107;48.654;9.250;2022-08-19T10:12:10;30.57;;;27.30;;
2201;SDS011;1107;48.654;9.250;2022-08-19T10:14:37;39.77;;;30.07;;
2201;SDS011;1107;48.654;9.250;2022-08-19T10:17:04;32.13;;;27.60;;
2201;SDS011;1107;48.654;9.250;2022-08-19T10:19:31;39.93;;;30.23;;
2201;SDS011;1107;48.654;9.250;2022-08-19T10:22:02;34.17;;;29.10;;
2201;SDS011;1107;48.654;9.250;2022-08-19T10:24:30;35.70;;;27.10;;
2201;SDS011;1107;48.654;9.250;2022-08-19T10:26:59;32.93;;;28.70;;
2201;SDS011;1107;48.654;9.250;2022-08-19T10:29:29;37.20;;;28.47;;
2201;SDS011;1107;48.654;9.250;2022-08-19T10:31:59;32.70;;;29.27;;
2201;SDS011;1107;48.654;9.250;2022-08-19T10:34:26;25.75;;;23.42;;
2201;SDS011;1107;48.654;9.250;2022-08-19T10:36:55;30.70;;;27.03;;
2201;SDS011;1107;48.654;9.250;2022-08-19T10:39:23;35.00;;;26.93;;
2201;SDS011;1107;48.654;9.250;2022-08-19T10:41:50;40.80;;;29.93;;
2201;SDS011;1107;48.654;9.250;2022-08-19T10:44:17;34.17;;;27.87;;
2201;SDS011;1107;48.654;9.250;2022-08-19T10:46:46;43.43;;;31.57;;
2201;SDS011;1107;48.654;9.250;2022-08-19T10:49:13;44.43;;;32.20;;
2201;SDS011;1107;48.654;9.250;2022-08-19T10:51:40;37.17;;;30.80;;
2201;SDS011;1107;48.654;9.250;2022-08-19T10:54:25;41.30;;;31.63;;
2201;SDS011;1107;48.654;9.250;2022-08-19T10:57:13;43.30;;;32.93;;
2201;SDS011;1107;48.654;9.250;2022-08-19T10:59:39;44.90;;;33.70;;
2201;SDS011;1107;48.654;9.250;2022-08-19T11:02:08;49.97;;;34.20;;
2201;SDS011;1107;48.654;9.250;2022-08-19T11:04:37;48.97;;;34.27;;
2201;SDS011;1107;48.654;9.250;2022-08-19T11:07:05;43.33;;;32.83;;
2201;SDS011;1107;48.654;9.250;2022-08-19T11:09:36;42.33;;;32.90;;
2201;SDS011;1107;48.654;9.250;2022-08-19T11:12:05;47.00;;;33.67;;
2201;SDS011;1107;48.654;9.250;2022-08-19T11:14:34;45.97;;;35.80;;
2201;SDS011;1107;48.654;9.250;2022-08-19T11:17:02;55.80;;;35.30;;
2201;SDS011;1107;48.654;9.250;2022-08-19T11:19:31;51.40;;;36.07;;
2201;SDS011;1107;48.654;9.250;2022-08-19T11:21:59;56.20;;;37.40;;
2201;SDS011;1107;48.654;9.250;2022-08-19T11:24:28;52.30;;;36.40;;
2201;SDS011;1107;48.654;9.250;2022-08-19T11:27:00;48.53;;;36.57;;
2201;SDS011;1107;48.654;9.250;2022-08-19T11:29:29;55.83;;;36.73;;
2201;SDS011;1107;48.654;9.250;2022-08-19T11:31:57;52.77;;;36.20;;
2201;SDS011;1107;48.654;9.250;2022-08-19T11:34:27;48.67;;;33.60;;
2201;SDS011;1107;48.654;9.250;2022-08-19T11:36:56;55.00;;;36.50;;
2201;SDS011;1107;48.654;9.250;2022-08-19T11:39:24;51.13;;;35.30;;
2201;SDS011;1107;48.654;9.250;2022-08-19T11:41:54;54.93;;;37.13;;
2201;SDS011;1107;48.654;9.250;2022-08-19T11:44:22;50.50;;;32.97;;
2201;SDS011;1107;48.654;9.250;2022-08-19T11:46:49;46.60;;;33.30;;
2201;SDS011;1107;48.654;9.250;2022-08-19T11:49:17;54.20;;;35.03;;
2201;SDS011;1107;48.654;9.250;2022-08-19T11:51:46;44.53;;;34.37;;
2201;SDS011;1107;48.654;9.250;2022-08-19T11:54:16;52.27;;;38.50;;
2201;SDS011;1107;48.654;9.250;2022-08-19T11:56:44;53.70;;;35.20;;
2201;SDS011;1107;48.654;9.250;2022-08-19T11:59:13;63.73;;;42.53;;
2201;SDS011;1107;48.654;9.250;2022-08-19T12:01:40;65.60;;;41.13;;
2201;SDS011;1107;48.654;9.250;2022-08-19T12:04:08;73.87;;;39.70;;
2201;SDS011;1107;48.654;9.250;2022-08-19T12:06:37;71.90;;;40.50;;
2201;SDS011;1107;48.654;9.250;2022-08-19T12:09:06;64.37;;;40.73;;
2201;SDS011;1107;48.654;9.250;2022-08-19T12:11:36;66.80;;;41.80;;
2201;SDS011;1107;48.654;9.250;2022-08-19T12:14:04;71.07;;;42.60;;
2201;SDS011;1107;48.654;9.250;2022-08-19T12:16:32;67.47;;;42.73;;
2201;SDS011;1107;48.654;9.250;2022-08-19T12:18:59;69.93;;;42.67;;
2201;SDS011;1107;48.654;9.250;2022-08-19T12:21:29;67.50;;;41.40;;
2201;SDS011;1107;48.654;9.250;2022-08-19T12:23:59;73.07;;;42.70;;
2201;SDS011;1107;48.654;9.250;2022-08-19T12:26:27;75.80;;;43.40;;
2201;SDS011;1107;48.654;9.250;2022-08-19T12:28:57;71.83;;;42.80;;
2201;SDS011;1107;48.654;9.250;2022-08-19T12:31:25;75.27;;;42.10;;
2201;SDS011;1107;48.654;9.250;2022-08-19T12:33:53;74.80;;;42.10;;
2201;SDS011;1107;48.654;9.250;2022-08-19T12:36:21;64.07;;;39.70;;
2201;SDS011;1107;48.654;9.250;2022-08-19T12:38:49;58.10;;;36.80;;
2201;SDS011;1107;48.654;9.250;2022-08-19T12:41:18;62.87;;;36.73;;
2201;SDS011;1107;48.654;9.250;2022-08-19T12:43:47;57.70;;;38.70;;
2201;SDS011;1107;48.654;9.250;2022-08-19T12:46:17;53.33;;;36.13;;
2201;SDS011;1107;48.654;9.250;2022-08-19T12:48:45;59.80;;;39.93;;
2201;SDS011;1107;48.654;9.250;2022-08-19T12:51:13;55.73;;;37.83;;
2201;SDS011;1107;48.654;9.250;2022-08-19T12:53:42;60.83;;;39.80;;
2201;SDS011;1107;48.654;9.250;2022-08-19T12:56:10;64.63;;;40.13;;
2201;SDS011;1107;48.654;9.250;2022-08-19T12:58:40;65.67;;;41.70;;
2201;SDS011;1107;48.654;9.250;2022-08-19T13:01:07;68.13;;;41.53;;
2201;SDS011;1107;48.654;9.250;2022-08-19T13:03:38;64.87;;;41.40;;
2201;SDS011;1107;48.654;9.250;2022-08-19T13:06:05;71.80;;;43.27;;
2201;SDS011;1107;48.654;9.250;2022-08-19T13:08:33;65.33;;;42.30;;
2201;SDS011;1107;48.654;9.250;2022-08-19T13:11:06;64.43;;;42.07;;
2201;SDS011;1107;48.654;9.250;2022-08-19T13:13:36;74.30;;;44.77;;
2201;SDS011;1107;48.654;9.250;2022-08-19T13:16:06;68.77;;;44.63;;
2201;SDS011;1107;48.654;9.250;2022-08-19T13:18:33;73.10;;;45.87;;
2201;SDS011;1107;48.654;9.250;2022-08-19T13:21:03;76.07;;;44.27;;
2201;SDS011;1107;48.654;9.250;2022-08-19T13:23:31;72.50;;;43.20;;
2201;SDS011;1107;48.654;9.250;2022-08-19T13:25:59;73.33;;;43.50;;
2201;SDS011;1107;48.654;9.250;2022-08-19T13:28:28;73.33;;;45.20;;
2201;SDS011;1107;48.654;9.250;2022-08-19T13:31:16;73.00;;;44.07;;
2201;SDS011;1107;48.654;9.250;2022-08-19T13:34:06;67.63;;;41.83;;
2201;SDS011;1107;48.654;9.250;2022-08-19T13:36:35;73.30;;;42.33;;
2201;SDS011;1107;48.654;9.250;2022-08-19T13:39:03;68.57;;;42.13;;
2201;SDS011;1107;48.654;9.250;2022-08-19T13:41:32;64.40;;;41.97;;
2201;SDS011;1107;48.654;9.250;2022-08-19T13:43:59;85.87;;;56.90;;
2201;SDS011;1107;48.654;9.250;2022-08-19T13:46:26;65.70;;;43.30;;
2201;SDS011;1107;48.654;9.250;2022-08-19T13:48:55;71.43;;;44.13;;
2201;SDS011;1107;48.654;9.250;2022-08-19T13:51:22;69.03;;;41.23;;
2201;SDS011;1107;48.654;9.250;2022-08-19T13:53:50;78.13;;;42.90;;
2201;SDS011;1107;48.654;9.250;2022-08-19T13:56:18;67.13;;;41.67;;
2201;SDS011;1107;48.654;9.250;2022-08-19T13:58:46;62.03;;;39.63;;
2201;SDS011;1107;48.654;9.250;2022-08-19T14:01:17;72.13;;;43.27;;
2201;SDS011;1107;48.654;9.250;2022-08-19T14:03:46;62.30;;;40.20;;
2201;SDS011;1107;48.654;9.250;2022-08-19T14:06:13;60.80;;;41.43;;
2201;SDS011;1107;48.654;9.250;2022-08-19T14:08:41;63.67;;;40.67;;
2201;SDS011;1107;48.654;9.250;2022-08-19T14:11:10;66.17;;;40.87;;
2201;SDS011;1107;48.654;9.250;2022-08-19T14:13:37;62.63;;;42.30;;
2201;SDS011;1107;48.654;9.250;2022-08-19T14:16:06;63.37;;;41.03;;
2201;SDS011;1107;48.654;9.250;2022-08-19T14:18:34;64.27;;;41.77;;
2201;SDS011;1107;48.654;9.250;2022-08-19T14:21:02;60.07;;;41.57;;
2201;SDS011;1107;48.654;9.250;2022-08-19T14:23:30;62.80;;;41.30;;
2201;SDS011;1107;48.654;9.250;2022-08-19T14:26:04;63.77;;;40.87;;
2201;SDS011;1107;48.654;9.250;2022-08-19T14:28:33;61.73;;;39.67;;
2201;SDS011;1107;48.654;9.250;2022-08-19T14:31:00;60.20;;;38.57;;
2201;SDS011;1107;48.654;9.250;2022-08-19T14:33:27;63.47;;;41.33;;
2201;SDS011;1107;48.654;9.250;2022-08-19T14:35:54;63.60;;;40.60;;
2201;SDS011;1107;48.654;9.250;2022-08-19T14:38:21;59.80;;;40.30;;
2201;SDS011;1107;48.654;9.250;2022-08-19T14:40:48;64.50;;;40.10;;
2201;SDS011;1107;48.654;9.250;2022-08-19T14:43:17;60.50;;;40.30;;
2201;SDS011;1107;48.654;9.250;2022-08-19T14:45:46;57.40;;;39.33;;
2201;SDS011;1107;48.654;9.250;2022-08-19T14:48:13;59.57;;;39.13;;
2201;SDS011;1107;48.654;9.250;2022-08-19T14:50:40;58.23;;;39.10;;
2201;SDS011;1107;48.654;9.250;2022-08-19T14:53:07;57.87;;;40.40;;
2201;SDS011;1107;48.654;9.250;2022-08-19T14:55:35;57.90;;;38.27;;
2201;SDS011;1107;48.654;9.250;2022-08-19T14:58:02;51.10;;;37.57;;
2201;SDS011;1107;48.654;9.250;2022-08-19T15:00:29;58.53;;;38.60;;